createdAt,value
2023-04-28T00:02:15.303Z,2.17
2023-04-28T00:05:02.568Z,2.08
2023-04-28T00:07:49.688Z,2.12
2023-04-28T00:10:37.094Z,2.13
2023-04-28T00:13:24.044Z,2.09
2023-04-28T00:16:11.229Z,2.09
2023-04-28T00:18:58.326Z,2.04
2023-04-28T00:21:45.617Z,1.89
2023-04-28T00:24:32.545Z,2.01
2023-04-28T00:27:19.730Z,2.00
2023-04-28T00:30:06.796Z,2.00
2023-04-28T00:32:54.369Z,2.01
2023-04-28T00:35:41.838Z,2.02
2023-04-28T00:38:29.140Z,2.02
2023-04-28T00:41:16.010Z,2.02
2023-04-28T00:44:07.230Z,1.68
2023-04-28T00:46:54.553Z,2.05
2023-04-28T00:49:42.062Z,2.05
2023-04-28T00:52:30.051Z,2.07
2023-04-28T00:55:18.193Z,2.04
2023-04-28T00:58:05.630Z,2.03
2023-04-28T01:00:53.159Z,1.98
2023-04-28T01:03:40.427Z,2.01
2023-04-28T01:06:30.194Z,2.00
2023-04-28T01:09:19.354Z,2.01
2023-04-28T01:12:06.549Z,2.01
2023-04-28T01:15:03.173Z,2.03
2023-04-28T01:17:51.738Z,2.02
2023-04-28T01:20:38.740Z,2.03
2023-04-28T01:23:26.215Z,2.04
2023-04-28T01:26:13.159Z,2.03
2023-04-28T01:29:00.283Z,2.02
2023-04-28T01:31:47.189Z,1.59
2023-04-28T01:34:34.593Z,2.01
2023-04-28T01:37:21.486Z,1.96
2023-04-28T01:40:12.837Z,1.92
2023-04-28T01:43:00.003Z,1.91
2023-04-28T01:45:47.079Z,1.83
2023-04-28T01:48:34.263Z,1.85
2023-04-28T01:51:21.471Z,1.82
2023-04-28T01:54:08.586Z,1.78
2023-04-28T01:56:55.709Z,1.68
2023-04-28T01:59:46.868Z,1.75
2023-04-28T02:02:34.384Z,1.75
2023-04-28T02:05:21.678Z,1.74
2023-04-28T02:08:10.400Z,1.74
2023-04-28T02:10:57.474Z,1.73
2023-04-28T02:13:44.460Z,1.74
2023-04-28T02:16:31.949Z,1.40
2023-04-28T02:19:19.205Z,1.46
2023-04-28T02:22:06.200Z,1.69
2023-04-28T02:24:56.093Z,1.69
2023-04-28T02:27:43.449Z,1.68
2023-04-28T02:30:30.836Z,1.61
2023-04-28T02:33:17.813Z,1.64
2023-04-28T02:36:04.873Z,1.64
2023-04-28T02:38:52.078Z,1.63
2023-04-28T02:41:39.086Z,1.64
2023-04-28T02:44:26.256Z,1.62
2023-04-28T02:47:13.339Z,1.61
2023-04-28T02:50:00.658Z,1.60
2023-04-28T02:52:49.108Z,1.58
2023-04-28T02:55:36.338Z,1.49
2023-04-28T02:58:23.410Z,1.55
2023-04-28T03:01:10.774Z,1.54
2023-04-28T03:03:58.088Z,1.47
2023-04-28T03:06:45.276Z,1.53
2023-04-28T03:09:32.496Z,1.52
2023-04-28T03:12:19.614Z,1.51
2023-04-28T03:15:07.045Z,1.45
2023-04-28T03:17:55.832Z,1.49
2023-04-28T03:20:43.026Z,1.47
2023-04-28T03:23:30.249Z,1.42
2023-04-28T03:26:17.430Z,0.98
2023-04-28T03:29:04.562Z,1.43
2023-04-28T03:31:51.645Z,1.43
2023-04-28T03:34:38.833Z,1.44
2023-04-28T03:37:26.024Z,0.95
2023-04-28T03:40:13.039Z,1.45
2023-04-28T03:43:18.962Z,1.47
2023-04-28T03:46:24.927Z,1.45
2023-04-28T03:49:12.673Z,1.50
2023-04-28T03:52:00.122Z,1.51
2023-04-28T03:54:47.266Z,1.42
2023-04-28T03:57:34.412Z,1.42
2023-04-28T04:00:21.944Z,1.56
2023-04-28T04:03:12.487Z,1.50
2023-04-28T04:06:00.866Z,1.61
2023-04-28T04:08:47.901Z,1.62
2023-04-28T04:11:36.337Z,1.66
2023-04-28T04:14:23.537Z,1.67
2023-04-28T04:17:10.701Z,1.70
2023-04-28T04:19:57.760Z,1.73
2023-04-28T04:22:44.912Z,1.73
2023-04-28T04:25:32.001Z,1.76
2023-04-28T04:28:19.970Z,1.71
2023-04-28T04:31:07.160Z,1.74
2023-04-28T04:33:54.309Z,1.65
2023-04-28T04:36:42.199Z,1.88
2023-04-28T04:39:29.986Z,1.90
2023-04-28T04:42:24.806Z,1.95
2023-04-28T04:45:42.077Z,1.66
2023-04-28T04:48:29.593Z,2.02
2023-04-28T04:51:18.669Z,2.05
2023-04-28T04:54:05.955Z,1.97
2023-04-28T04:56:54.204Z,2.12
2023-04-28T04:59:55.062Z,2.15
2023-04-28T05:02:42.305Z,2.23
2023-04-28T05:05:29.576Z,2.27
2023-04-28T05:08:28.314Z,1.83
2023-04-28T05:11:17.284Z,1.96
2023-04-28T05:14:04.610Z,2.35
2023-04-28T05:16:51.794Z,2.28
2023-04-28T05:19:47.285Z,2.40
2023-04-28T05:22:35.755Z,2.37
2023-04-28T05:25:22.845Z,2.46
2023-04-28T05:28:09.900Z,2.50
2023-04-28T05:30:56.916Z,2.48
2023-04-28T05:33:43.843Z,2.54
2023-04-28T05:36:31.004Z,2.57
2023-04-28T05:39:18.034Z,2.61
2023-04-28T05:42:05.411Z,2.64
2023-04-28T05:44:52.429Z,2.69
2023-04-28T05:47:39.684Z,2.72
2023-04-28T05:50:27.555Z,2.76
2023-04-28T05:53:14.574Z,2.79
2023-04-28T05:56:01.789Z,2.69
2023-04-28T05:58:48.792Z,2.82
2023-04-28T06:01:35.844Z,2.85
2023-04-28T06:04:23.489Z,2.89
2023-04-28T06:07:11.172Z,2.94
2023-04-28T06:09:58.930Z,2.99
2023-04-28T06:12:46.154Z,2.94
2023-04-28T06:15:33.321Z,3.09
2023-04-28T06:18:20.763Z,3.15
2023-04-28T06:21:07.815Z,3.19
2023-04-28T06:23:54.896Z,3.22
2023-04-28T06:26:42.666Z,3.26
2023-04-28T06:29:29.983Z,3.25
2023-04-28T06:32:17.311Z,3.33
2023-04-28T06:35:04.408Z,3.37
2023-04-28T06:37:51.344Z,3.40
2023-04-28T06:40:38.463Z,3.46
2023-04-28T06:43:26.680Z,3.52
2023-04-28T06:46:25.393Z,3.56
2023-04-28T06:49:13.230Z,3.62
2023-04-28T06:52:00.322Z,3.67
2023-04-28T06:54:50.574Z,3.71
2023-04-28T06:57:37.656Z,3.75
2023-04-28T07:00:25.641Z,3.77
2023-04-28T07:03:13.006Z,3.89
2023-04-28T07:06:00.154Z,3.94
2023-04-28T07:08:47.205Z,4.00
2023-04-28T07:11:34.230Z,3.99
2023-04-28T07:14:21.257Z,3.72
2023-04-28T07:17:08.284Z,4.18
2023-04-28T07:19:55.774Z,4.23
2023-04-28T07:22:43.031Z,4.26
2023-04-28T07:25:30.285Z,4.16
2023-04-28T07:28:17.579Z,4.33
2023-04-28T07:31:04.534Z,4.18
2023-04-28T07:33:51.487Z,4.37
2023-04-28T07:36:38.677Z,4.44
2023-04-28T07:39:25.769Z,4.42
2023-04-28T07:42:12.899Z,4.47
2023-04-28T07:44:59.894Z,4.49
2023-04-28T07:47:46.901Z,4.52
2023-04-28T07:50:33.906Z,4.53
2023-04-28T07:53:20.927Z,4.54
2023-04-28T07:56:07.979Z,4.58
2023-04-28T07:58:55.098Z,4.62
2023-04-28T08:01:42.015Z,4.67
2023-04-28T08:04:29.163Z,4.69
2023-04-28T08:07:16.497Z,4.76
2023-04-28T08:10:03.513Z,4.78
2023-04-28T08:12:50.599Z,4.84
2023-04-28T08:15:37.689Z,4.93
2023-04-28T08:18:24.841Z,4.97
2023-04-28T08:21:11.875Z,5.03
2023-04-28T08:23:58.837Z,5.08
2023-04-28T08:26:45.885Z,5.14
2023-04-28T08:29:33.051Z,5.17
2023-04-28T08:32:20.251Z,5.25
2023-04-28T08:35:07.361Z,5.25
2023-04-28T08:37:55.505Z,5.39
2023-04-28T08:40:42.659Z,5.45
2023-04-28T08:43:32.356Z,5.50
2023-04-28T08:46:20.431Z,5.57
2023-04-28T08:49:09.831Z,5.63
2023-04-28T08:52:05.726Z,5.69
2023-04-28T08:54:56.382Z,5.77
2023-04-28T08:57:43.605Z,5.85
2023-04-28T09:00:11.771Z,5.92
2023-04-28T09:02:42.167Z,5.99
2023-04-28T09:05:11.377Z,6.09
2023-04-28T09:07:39.094Z,6.15
2023-04-28T09:10:27.856Z,6.22
2023-04-28T09:12:56.085Z,6.25
2023-04-28T09:15:33.243Z,6.36
2023-04-28T09:18:02.577Z,6.43
2023-04-28T09:20:32.434Z,6.48
2023-04-28T09:23:18.937Z,6.55
2023-04-28T09:26:02.364Z,6.61
2023-04-28T09:28:29.819Z,6.65
2023-04-28T09:30:57.184Z,6.71
2023-04-28T09:33:24.457Z,6.77
2023-04-28T09:36:12.034Z,6.61
2023-04-28T09:39:04.117Z,6.90
2023-04-28T09:42:03.532Z,7.00
2023-04-28T09:44:50.733Z,7.07
2023-04-28T09:47:43.963Z,7.22
2023-04-28T09:50:35.473Z,7.24
2023-04-28T09:53:22.895Z,7.42
2023-04-28T09:56:12.088Z,7.44
2023-04-28T09:59:03.325Z,7.51
2023-04-28T10:01:57.565Z,7.55
2023-04-28T10:04:44.837Z,7.56
2023-04-28T10:07:33.073Z,7.59
2023-04-28T10:10:20.906Z,7.62
2023-04-28T10:13:08.289Z,7.66
2023-04-28T10:15:59.168Z,7.72
2023-04-28T10:18:46.597Z,7.80
2023-04-28T10:21:39.211Z,7.82
2023-04-28T10:24:31.003Z,7.97
2023-04-28T10:27:23.643Z,8.05
2023-04-28T10:30:23.020Z,8.11
2023-04-28T10:33:26.357Z,8.12
2023-04-28T10:36:14.227Z,8.13
2023-04-28T10:39:29.020Z,8.13
2023-04-28T10:42:16.131Z,8.15
2023-04-28T10:45:03.270Z,8.15
2023-04-28T10:48:36.563Z,8.12
2023-04-28T10:51:23.616Z,8.09
2023-04-28T10:54:10.520Z,8.07
2023-04-28T10:56:57.621Z,8.11
2023-04-28T10:59:46.254Z,8.25
2023-04-28T11:02:56.570Z,8.43
2023-04-28T11:05:43.858Z,8.62
2023-04-28T11:08:46.227Z,8.80
2023-04-28T11:11:35.089Z,9.00
2023-04-28T11:14:37.611Z,9.21
2023-04-28T11:17:31.819Z,9.37
2023-04-28T11:20:20.154Z,9.48
2023-04-28T11:23:12.866Z,9.61
2023-04-28T11:26:16.351Z,9.73
2023-04-28T11:29:07.981Z,9.69
2023-04-28T11:31:55.567Z,10.02
2023-04-28T11:34:43.721Z,10.16
2023-04-28T11:37:35.770Z,10.03
2023-04-28T11:40:33.318Z,10.37
2023-04-28T11:43:20.341Z,10.44
2023-04-28T11:46:07.428Z,10.56
2023-04-28T11:48:54.476Z,10.63
2023-04-28T11:51:55.182Z,10.69
2023-04-28T11:54:47.774Z,10.78
2023-04-28T11:57:39.461Z,10.71
2023-04-28T12:00:39.921Z,10.91
2023-04-28T12:03:30.165Z,11.02
2023-04-28T12:06:18.043Z,11.13
2023-04-28T12:09:05.288Z,11.24
2023-04-28T12:11:52.675Z,11.32
2023-04-28T12:14:39.733Z,11.34
2023-04-28T12:17:27.072Z,11.37
2023-04-28T12:20:18.893Z,11.33
2023-04-28T12:23:10.679Z,11.25
2023-04-28T12:26:06.847Z,11.41
2023-04-28T12:28:58.389Z,11.10
2023-04-28T12:31:45.392Z,11.53
2023-04-28T12:34:32.763Z,11.58
2023-04-28T12:37:24.436Z,11.48
2023-04-28T12:40:11.562Z,11.55
2023-04-28T12:42:58.583Z,11.56
2023-04-28T12:45:45.834Z,11.56
2023-04-28T12:48:32.913Z,11.46
2023-04-28T12:51:19.951Z,11.56
2023-04-28T12:54:07.090Z,11.59
2023-04-28T12:56:54.052Z,11.54
2023-04-28T12:59:41.818Z,11.62
2023-04-28T13:02:29.385Z,11.65
2023-04-28T13:05:16.442Z,11.65
2023-04-28T13:08:03.542Z,11.57
2023-04-28T13:10:50.633Z,11.47
2023-04-28T13:13:37.634Z,11.39
2023-04-28T13:16:25.332Z,11.30
2023-04-28T13:19:12.379Z,11.26
2023-04-28T13:22:02.506Z,11.03
2023-04-28T13:24:49.502Z,10.99
2023-04-28T13:27:37.460Z,10.92
2023-04-28T13:30:25.656Z,10.85
2023-04-28T13:33:12.850Z,10.75
2023-04-28T13:35:59.936Z,10.68
2023-04-28T13:38:46.956Z,10.61
2023-04-28T13:41:34.149Z,10.66
2023-04-28T13:44:21.200Z,10.64
2023-04-28T13:47:08.616Z,10.63
2023-04-28T13:49:55.676Z,10.61
2023-04-28T13:52:42.617Z,10.64
2023-04-28T13:55:29.666Z,10.57
2023-04-28T13:58:17.360Z,10.88
2023-04-28T14:01:04.582Z,10.99
2023-04-28T14:03:51.770Z,10.94
2023-04-28T14:06:39.068Z,10.85
2023-04-28T14:09:26.165Z,10.78
2023-04-28T14:12:13.107Z,10.67
2023-04-28T14:15:03.236Z,10.56
2023-04-28T14:17:50.434Z,10.60
2023-04-28T14:20:37.625Z,10.47
2023-04-28T14:23:24.632Z,10.41
2023-04-28T14:26:13.086Z,10.34
2023-04-28T14:29:00.185Z,10.29
2023-04-28T14:31:47.225Z,10.24
2023-04-28T14:34:34.114Z,10.20
2023-04-28T14:37:21.402Z,10.09
2023-04-28T14:40:08.708Z,10.03
2023-04-28T14:42:56.644Z,9.99
2023-04-28T14:45:43.609Z,9.93
2023-04-28T14:48:31.395Z,9.93
2023-04-28T14:51:18.572Z,9.89
2023-04-28T14:54:05.688Z,9.70
2023-04-28T14:56:52.719Z,9.86
2023-04-28T14:59:39.770Z,9.85
2023-04-28T15:02:28.058Z,9.82
2023-04-28T15:05:16.360Z,9.79
2023-04-28T15:08:03.253Z,9.79
2023-04-28T15:10:58.452Z,9.81
2023-04-28T15:13:45.560Z,9.78
2023-04-28T15:16:32.603Z,9.87
2023-04-28T15:19:19.644Z,9.78
2023-04-28T15:22:06.948Z,9.99
2023-04-28T15:24:54.247Z,10.04
2023-04-28T15:27:41.353Z,10.08
2023-04-28T15:30:29.310Z,10.08
2023-04-28T15:33:16.459Z,10.06
2023-04-28T15:36:04.119Z,10.21
2023-04-28T15:38:51.133Z,10.31
2023-04-28T15:41:38.786Z,10.40
2023-04-28T15:44:26.216Z,10.20
2023-04-28T15:47:14.170Z,10.54
2023-04-28T15:50:01.497Z,10.60
2023-04-28T15:52:49.194Z,10.63
2023-04-28T15:55:37.582Z,10.36
2023-04-28T15:58:24.596Z,10.57
2023-04-28T16:01:11.599Z,10.53
2023-04-28T16:03:59.534Z,10.52
2023-04-28T16:06:46.898Z,10.43
2023-04-28T16:09:34.034Z,10.42
2023-04-28T16:12:21.088Z,10.65
2023-04-28T16:15:11.286Z,10.70
2023-04-28T16:17:58.785Z,10.71
2023-04-28T16:20:45.764Z,10.71
2023-04-28T16:23:32.916Z,10.76
2023-04-28T16:26:20.290Z,10.76
2023-04-28T16:29:07.547Z,10.77
2023-04-28T16:31:54.848Z,10.41
2023-04-28T16:34:42.113Z,10.67
2023-04-28T16:37:29.441Z,10.46
2023-04-28T16:40:16.508Z,10.57
2023-04-28T16:43:05.940Z,10.56
2023-04-28T16:45:53.166Z,10.55
2023-04-28T16:48:40.311Z,10.55
2023-04-28T16:51:32.340Z,10.34
2023-04-28T16:54:19.370Z,10.61
2023-04-28T16:57:06.312Z,10.61
2023-04-28T16:59:53.452Z,10.57
2023-04-28T17:02:40.686Z,10.53
2023-04-28T17:05:28.877Z,10.37
2023-04-28T17:08:15.988Z,10.31
2023-04-28T17:11:03.063Z,10.18
2023-04-28T17:13:51.561Z,10.08
2023-04-28T17:16:38.911Z,9.95
2023-04-28T17:19:26.129Z,9.82
2023-04-28T17:22:13.141Z,9.68
2023-04-28T17:25:00.128Z,9.15
2023-04-28T17:27:47.170Z,9.22
2023-04-28T17:30:34.211Z,9.19
2023-04-28T17:33:21.806Z,9.02
2023-04-28T17:36:08.732Z,8.87
2023-04-28T17:38:56.251Z,8.75
2023-04-28T17:41:43.204Z,8.57
2023-04-28T17:44:30.349Z,8.37
2023-04-28T17:47:17.594Z,8.26
2023-04-28T17:50:04.677Z,8.15
2023-04-28T17:52:51.628Z,7.93
2023-04-28T17:55:38.924Z,7.89
2023-04-28T17:58:25.813Z,7.76
2023-04-28T18:01:20.552Z,7.61
2023-04-28T18:04:07.471Z,7.46
2023-04-28T18:06:54.713Z,7.28
2023-04-28T18:09:41.666Z,7.17
2023-04-28T18:12:29.578Z,7.05
2023-04-28T18:15:16.498Z,6.95
2023-04-28T18:18:04.217Z,6.84
2023-04-28T18:20:51.248Z,6.75
2023-04-28T18:23:38.427Z,6.64
2023-04-28T18:26:25.634Z,6.48
2023-04-28T18:29:12.705Z,6.39
2023-04-28T18:31:59.808Z,6.27
2023-04-28T18:34:47.461Z,6.13
2023-04-28T18:37:34.620Z,5.86
2023-04-28T18:40:21.734Z,5.84
2023-04-28T18:43:08.585Z,5.70
2023-04-28T18:45:58.144Z,5.59
2023-04-28T18:48:45.184Z,5.49
2023-04-28T18:51:32.306Z,5.39
2023-04-28T18:54:19.543Z,5.27
2023-04-28T18:57:06.964Z,5.02
2023-04-28T18:59:53.836Z,5.07
2023-04-28T19:02:41.766Z,4.94
2023-04-28T19:05:29.212Z,4.93
2023-04-28T19:08:16.825Z,4.85
2023-04-28T19:11:03.733Z,4.76
2023-04-28T19:13:50.958Z,4.68
2023-04-28T19:16:37.944Z,4.62
2023-04-28T19:19:25.207Z,4.54
2023-04-28T19:22:12.106Z,4.01
2023-04-28T19:24:59.256Z,4.42
2023-04-28T19:27:49.920Z,4.37
2023-04-28T19:30:37.292Z,4.28
2023-04-28T19:33:27.052Z,4.27
2023-04-28T19:36:15.344Z,4.20
2023-04-28T19:39:02.336Z,4.08
2023-04-28T19:41:49.503Z,3.98
2023-04-28T19:44:36.431Z,3.69
2023-04-28T19:47:24.141Z,3.68
2023-04-28T19:50:11.777Z,3.85
2023-04-28T19:52:59.060Z,3.69
2023-04-28T19:55:46.018Z,3.76
2023-04-28T19:58:33.000Z,3.65
2023-04-28T20:01:20.048Z,3.72
2023-04-28T20:04:07.542Z,3.65
2023-04-28T20:06:54.741Z,3.61
2023-04-28T20:09:41.764Z,3.57
2023-04-28T20:12:29.371Z,3.52
2023-04-28T20:15:16.619Z,3.38
2023-04-28T20:18:03.708Z,3.43
2023-04-28T20:20:50.841Z,3.40
2023-04-28T20:23:37.756Z,3.39
2023-04-28T20:26:24.897Z,3.38
2023-04-28T20:29:11.884Z,3.36
2023-04-28T20:31:58.969Z,3.33
2023-04-28T20:34:46.036Z,3.30
2023-04-28T20:37:33.277Z,3.07
2023-04-28T20:40:20.154Z,3.17
2023-04-28T20:43:07.310Z,3.13
2023-04-28T20:45:54.276Z,3.13
2023-04-28T20:48:41.489Z,3.09
2023-04-28T20:51:28.429Z,3.05
2023-04-28T20:54:15.838Z,2.85
2023-04-28T20:57:02.902Z,2.75
2023-04-28T20:59:51.963Z,2.95
2023-04-28T21:02:39.297Z,2.91
2023-04-28T21:05:27.036Z,2.87
2023-04-28T21:08:13.954Z,2.85
2023-04-28T21:11:01.013Z,2.83
2023-04-28T21:13:47.995Z,2.81
2023-04-28T21:16:39.458Z,2.86
2023-04-28T21:19:26.463Z,2.85
2023-04-28T21:22:13.761Z,2.81
2023-04-28T21:25:00.694Z,2.62
2023-04-28T21:27:47.845Z,2.74
2023-04-28T21:30:34.973Z,2.69
2023-04-28T21:33:22.179Z,2.49
2023-04-28T21:36:09.263Z,2.62
2023-04-28T21:38:59.673Z,2.58
2023-04-28T21:41:46.817Z,2.56
2023-04-28T21:44:34.406Z,2.50
2023-04-28T21:47:21.475Z,2.50
2023-04-28T21:50:08.558Z,2.49
2023-04-28T21:52:55.544Z,2.45
2023-04-28T21:55:42.603Z,2.43
2023-04-28T21:58:29.556Z,2.41
2023-04-28T22:01:16.653Z,2.21
2023-04-28T22:04:05.523Z,2.17
2023-04-28T22:06:52.790Z,2.27
2023-04-28T22:09:39.738Z,2.26
2023-04-28T22:12:26.934Z,2.23
2023-04-28T22:15:13.930Z,2.17
2023-04-28T22:18:01.217Z,2.18
2023-04-28T22:20:48.394Z,2.16
2023-04-28T22:23:35.731Z,2.10
2023-04-28T22:26:23.263Z,2.12
2023-04-28T22:29:10.415Z,2.11
2023-04-28T22:31:57.362Z,2.07
2023-04-28T22:34:44.764Z,2.06
2023-04-28T22:37:31.700Z,2.07
2023-04-28T22:40:18.889Z,1.98
2023-04-28T22:43:05.977Z,1.74
2023-04-28T22:45:52.986Z,2.05
2023-04-28T22:48:39.943Z,2.05
2023-04-28T22:51:26.952Z,2.03
2023-04-28T22:54:13.897Z,2.00
2023-04-28T22:57:01.089Z,1.89
2023-04-28T22:59:48.100Z,2.00
2023-04-28T23:02:35.332Z,1.99
2023-04-28T23:05:22.309Z,1.92
2023-04-28T23:08:09.429Z,1.91
2023-04-28T23:10:56.467Z,1.80
2023-04-28T23:13:43.775Z,1.87
2023-04-28T23:16:31.007Z,1.86
2023-04-28T23:19:20.121Z,1.85
2023-04-28T23:22:08.003Z,1.83
2023-04-28T23:24:56.203Z,1.79
2023-04-28T23:27:43.350Z,1.74
2023-04-28T23:30:30.681Z,1.78
2023-04-28T23:33:17.817Z,1.77
2023-04-28T23:36:04.812Z,1.47
2023-04-28T23:38:51.729Z,1.79
2023-04-28T23:41:38.787Z,1.76
2023-04-28T23:44:26.038Z,1.70
2023-04-28T23:47:13.087Z,1.70
2023-04-28T23:50:00.107Z,1.67
2023-04-28T23:52:47.059Z,1.63
2023-04-28T23:55:33.996Z,1.58
2023-04-28T23:58:20.947Z,1.55
